sensor_id;sensor_type;location;lat;lon;timestamp;P1;durP1;ratioP1;P2;durP2;ratioP2
5678;SDS011;2862;52.560;13.566;2023-02-01T00:02:31;45.63;;;1.80;;
5678;SDS011;2862;52.560;13.566;2023-02-01T00:12:35;29.43;;;1.57;;
5678;SDS011;2862;52.560;13.566;2023-02-01T00:22:39;34.97;;;2.57;;
5678;SDS011;2862;52.560;13.566;2023-02-01T00:32:44;34.33;;;2.93;;
5678;SDS011;2862;52.560;13.566;2023-02-01T00:42:47;27.30;;;2.07;;
5678;SDS011;2862;52.560;13.566;2023-02-01T00:52:51;30.63;;;1.23;;
5678;SDS011;2862;52.560;13.566;2023-02-01T01:02:54;35.07;;;1.10;;
5678;SDS011;2862;52.560;13.566;2023-02-01T01:12:59;31.17;;;1.47;;
5678;SDS011;2862;52.560;13.566;2023-02-01T01:23:02;25.57;;;1.67;;
5678;SDS011;2862;52.560;13.566;2023-02-01T01:33:07;24.87;;;1.03;;
5678;SDS011;2862;52.560;13.566;2023-02-01T01:43:12;27.30;;;1.27;;
5678;SDS011;2862;52.560;13.566;2023-02-01T01:53:19;35.83;;;1.97;;
5678;SDS011;2862;52.560;13.566;2023-02-01T02:03:30;34.83;;;0.83;;
5678;SDS011;2862;52.560;13.566;2023-02-01T02:13:37;16.97;;;0.60;;
5678;SDS011;2862;52.560;13.566;2023-02-01T02:23:47;29.77;;;2.13;;
5678;SDS011;2862;52.560;13.566;2023-02-01T02:34:18;27.53;;;1.00;;
5678;SDS011;2862;52.560;13.566;2023-02-01T02:44:29;33.00;;;2.00;;
5678;SDS011;2862;52.560;13.566;2023-02-01T02:54:56;26.23;;;1.13;;
5678;SDS011;2862;52.560;13.566;2023-02-01T03:05:02;24.10;;;2.30;;
5678;SDS011;2862;52.560;13.566;2023-02-01T03:15:09;39.93;;;1.50;;
5678;SDS011;2862;52.560;13.566;2023-02-01T03:25:18;23.77;;;0.97;;
5678;SDS011;2862;52.560;13.566;2023-02-01T03:35:28;33.53;;;1.37;;
5678;SDS011;2862;52.560;13.566;2023-02-01T03:45:36;31.50;;;1.60;;
5678;SDS011;2862;52.560;13.566;2023-02-01T03:55:45;21.90;;;1.10;;
5678;SDS011;2862;52.560;13.566;2023-02-01T04:05:50;35.00;;;2.10;;
5678;SDS011;2862;52.560;13.566;2023-02-01T04:15:58;34.27;;;3.00;;
5678;SDS011;2862;52.560;13.566;2023-02-01T04:26:01;42.83;;;2.40;;
5678;SDS011;2862;52.560;13.566;2023-02-01T04:36:08;32.43;;;2.40;;
5678;SDS011;2862;52.560;13.566;2023-02-01T04:46:11;30.33;;;2.00;;
5678;SDS011;2862;52.560;13.566;2023-02-01T04:56:16;35.77;;;1.83;;
5678;SDS011;2862;52.560;13.566;2023-02-01T05:06:19;41.43;;;4.00;;
5678;SDS011;2862;52.560;13.566;2023-02-01T05:16:23;26.97;;;2.43;;
5678;SDS011;2862;52.560;13.566;2023-02-01T05:26:26;25.63;;;1.43;;
5678;SDS011;2862;52.560;13.566;2023-02-01T05:36:31;31.33;;;1.60;;
5678;SDS011;2862;52.560;13.566;2023-02-01T05:46:34;30.77;;;1.13;;
5678;SDS011;2862;52.560;13.566;2023-02-01T05:56:39;42.60;;;3.50;;
5678;SDS011;2862;52.560;13.566;2023-02-01T06:06:42;27.60;;;1.53;;
5678;SDS011;2862;52.560;13.566;2023-02-01T06:16:47;35.37;;;2.50;;
5678;SDS011;2862;52.560;13.566;2023-02-01T06:26:50;36.17;;;2.50;;
5678;SDS011;2862;52.560;13.566;2023-02-01T06:36:54;28.50;;;1.70;;
5678;SDS011;2862;52.560;13.566;2023-02-01T06:46:57;32.10;;;1.90;;
5678;SDS011;2862;52.560;13.566;2023-02-01T06:57:02;33.50;;;1.77;;
5678;SDS011;2862;52.560;13.566;2023-02-01T07:07:05;33.57;;;1.87;;
5678;SDS011;2862;52.560;13.566;2023-02-01T07:17:09;32.53;;;2.10;;
5678;SDS011;2862;52.560;13.566;2023-02-01T07:27:13;23.47;;;1.70;;
5678;SDS011;2862;52.560;13.566;2023-02-01T07:37:17;34.53;;;2.73;;
5678;SDS011;2862;52.560;13.566;2023-02-01T07:47:20;19.97;;;1.63;;
5678;SDS011;2862;52.560;13.566;2023-02-01T07:57:25;28.07;;;2.10;;
5678;SDS011;2862;52.560;13.566;2023-02-01T08:07:28;35.87;;;2.60;;
5678;SDS011;2862;52.560;13.566;2023-02-01T08:17:32;21.53;;;1.07;;
5678;SDS011;2862;52.560;13.566;2023-02-01T08:27:35;22.20;;;2.10;;
5678;SDS011;2862;52.560;13.566;2023-02-01T08:37:40;22.80;;;1.60;;
5678;SDS011;2862;52.560;13.566;2023-02-01T08:47:42;25.17;;;1.90;;
5678;SDS011;2862;52.560;13.566;2023-02-01T08:57:47;17.73;;;1.50;;
5678;SDS011;2862;52.560;13.566;2023-02-01T09:07:50;16.90;;;1.47;;
5678;SDS011;2862;52.560;13.566;2023-02-01T09:17:54;15.00;;;0.73;;
5678;SDS011;2862;52.560;13.566;2023-02-01T09:27:57;17.60;;;1.03;;
5678;SDS011;2862;52.560;13.566;2023-02-01T09:38:01;17.63;;;0.80;;
5678;SDS011;2862;52.560;13.566;2023-02-01T09:48:08;17.47;;;0.60;;
5678;SDS011;2862;52.560;13.566;2023-02-01T09:58:17;11.90;;;0.50;;
5678;SDS011;2862;52.560;13.566;2023-02-01T10:08:26;16.47;;;0.50;;
5678;SDS011;2862;52.560;13.566;2023-02-01T10:18:44;16.60;;;0.30;;
5678;SDS011;2862;52.560;13.566;2023-02-01T10:29:00;12.07;;;0.40;;
5678;SDS011;2862;52.560;13.566;2023-02-01T10:39:08;16.87;;;0.37;;
5678;SDS011;2862;52.560;13.566;2023-02-01T10:49:16;15.67;;;0.40;;
5678;SDS011;2862;52.560;13.566;2023-02-01T10:59:25;23.10;;;0.60;;
5678;SDS011;2862;52.560;13.566;2023-02-01T11:09:30;13.87;;;0.47;;
5678;SDS011;2862;52.560;13.566;2023-02-01T11:19:45;16.17;;;1.00;;
5678;SDS011;2862;52.560;13.566;2023-02-01T11:29:49;23.20;;;4.23;;
5678;SDS011;2862;52.560;13.566;2023-02-01T11:39:56;18.17;;;1.50;;
5678;SDS011;2862;52.560;13.566;2023-02-01T11:50:00;20.93;;;2.33;;
5678;SDS011;2862;52.560;13.566;2023-02-01T12:00:13;23.70;;;1.00;;
5678;SDS011;2862;52.560;13.566;2023-02-01T12:10:32;20.58;;;0.60;;
5678;SDS011;2862;52.560;13.566;2023-02-01T12:21:01;19.07;;;0.60;;
5678;SDS011;2862;52.560;13.566;2023-02-01T12:31:20;21.63;;;0.53;;
5678;SDS011;2862;52.560;13.566;2023-02-01T12:41:36;14.30;;;0.40;;
5678;SDS011;2862;52.560;13.566;2023-02-01T12:51:52;19.03;;;1.00;;
5678;SDS011;2862;52.560;13.566;2023-02-01T13:01:59;21.50;;;1.43;;
5678;SDS011;2862;52.560;13.566;2023-02-01T13:12:07;11.50;;;0.20;;
5678;SDS011;2862;52.560;13.566;2023-02-01T13:22:19;12.40;;;0.20;;
5678;SDS011;2862;52.560;13.566;2023-02-01T13:43:13;19.90;;;3.17;;
5678;SDS011;2862;52.560;13.566;2023-02-01T13:53:26;30.10;;;5.50;;
5678;SDS011;2862;52.560;13.566;2023-02-01T14:03:44;23.50;;;3.77;;
5678;SDS011;2862;52.560;13.566;2023-02-01T14:13:48;21.40;;;1.33;;
5678;SDS011;2862;52.560;13.566;2023-02-01T14:23:56;22.13;;;0.70;;
5678;SDS011;2862;52.560;13.566;2023-02-01T14:34:02;17.03;;;0.60;;
5678;SDS011;2862;52.560;13.566;2023-02-01T14:44:22;21.57;;;1.67;;
5678;SDS011;2862;52.560;13.566;2023-02-01T14:54:27;19.60;;;0.83;;
5678;SDS011;2862;52.560;13.566;2023-02-01T15:04:38;28.33;;;1.53;;
5678;SDS011;2862;52.560;13.566;2023-02-01T15:14:45;22.30;;;1.17;;
5678;SDS011;2862;52.560;13.566;2023-02-01T15:24:53;20.60;;;0.60;;
5678;SDS011;2862;52.560;13.566;2023-02-01T15:34:56;21.60;;;1.43;;
5678;SDS011;2862;52.560;13.566;2023-02-01T15:45:00;23.03;;;1.00;;
5678;SDS011;2862;52.560;13.566;2023-02-01T15:55:04;11.27;;;0.30;;
5678;SDS011;2862;52.560;13.566;2023-02-01T16:05:27;12.43;;;0.30;;
5678;SDS011;2862;52.560;13.566;2023-02-01T16:15:35;13.17;;;0.30;;
5678;SDS011;2862;52.560;13.566;2023-02-01T16:25:39;11.13;;;0.20;;
5678;SDS011;2862;52.560;13.566;2023-02-01T16:35:42;9.70;;;0.20;;
5678;SDS011;2862;52.560;13.566;2023-02-01T16:45:47;10.90;;;0.27;;
5678;SDS011;2862;52.560;13.566;2023-02-01T16:55:50;8.80;;;0.20;;
5678;SDS011;2862;52.560;13.566;2023-02-01T17:05:55;10.57;;;0.30;;
5678;SDS011;2862;52.560;13.566;2023-02-01T17:15:59;27.50;;;8.97;;
5678;SDS011;2862;52.560;13.566;2023-02-01T17:26:07;14.00;;;0.40;;
5678;SDS011;2862;52.560;13.566;2023-02-01T17:36:12;10.97;;;0.20;;
5678;SDS011;2862;52.560;13.566;2023-02-01T17:46:18;12.60;;;0.30;;
5678;SDS011;2862;52.560;13.566;2023-02-01T17:56:26;22.70;;;5.10;;
5678;SDS011;2862;52.560;13.566;2023-02-01T18:06:31;11.40;;;0.80;;
5678;SDS011;2862;52.560;13.566;2023-02-01T18:16:38;13.80;;;0.40;;
5678;SDS011;2862;52.560;13.566;2023-02-01T18:26:43;11.37;;;0.33;;
5678;SDS011;2862;52.560;13.566;2023-02-01T18:36:46;15.70;;;1.57;;
5678;SDS011;2862;52.560;13.566;2023-02-01T18:46:50;18.77;;;0.87;;
5678;SDS011;2862;52.560;13.566;2023-02-01T18:56:53;19.33;;;1.00;;
5678;SDS011;2862;52.560;13.566;2023-02-01T19:07:10;19.57;;;0.60;;
5678;SDS011;2862;52.560;13.566;2023-02-01T19:17:14;23.20;;;0.60;;
5678;SDS011;2862;52.560;13.566;2023-02-01T19:27:18;20.27;;;3.20;;
5678;SDS011;2862;52.560;13.566;2023-02-01T19:37:20;24.20;;;0.80;;
5678;SDS011;2862;52.560;13.566;2023-02-01T19:47:25;18.33;;;0.70;;
5678;SDS011;2862;52.560;13.566;2023-02-01T19:57:28;26.03;;;1.30;;
5678;SDS011;2862;52.560;13.566;2023-02-01T20:07:32;27.57;;;0.60;;
5678;SDS011;2862;52.560;13.566;2023-02-01T20:17:35;23.10;;;1.57;;
5678;SDS011;2862;52.560;13.566;2023-02-01T20:27:40;30.50;;;0.90;;
5678;SDS011;2862;52.560;13.566;2023-02-01T20:37:43;39.20;;;1.20;;
5678;SDS011;2862;52.560;13.566;2023-02-01T20:47:48;19.17;;;0.50;;
5678;SDS011;2862;52.560;13.566;2023-02-01T20:57:54;17.87;;;0.83;;
5678;SDS011;2862;52.560;13.566;2023-02-01T21:07:58;20.67;;;0.63;;
5678;SDS011;2862;52.560;13.566;2023-02-01T21:18:01;18.87;;;0.70;;
5678;SDS011;2862;52.560;13.566;2023-02-01T21:28:07;17.90;;;0.93;;
5678;SDS011;2862;52.560;13.566;2023-02-01T21:38:10;18.17;;;0.50;;
5678;SDS011;2862;52.560;13.566;2023-02-01T21:48:14;14.03;;;0.77;;
5678;SDS011;2862;52.560;13.566;2023-02-01T21:58:17;36.93;;;1.67;;
5678;SDS011;2862;52.560;13.566;2023-02-01T22:08:21;21.63;;;0.73;;
5678;SDS011;2862;52.560;13.566;2023-02-01T22:18:23;19.70;;;0.97;;
5678;SDS011;2862;52.560;13.566;2023-02-01T22:28:28;26.03;;;1.70;;
5678;SDS011;2862;52.560;13.566;2023-02-01T22:38:34;24.03;;;0.80;;
5678;SDS011;2862;52.560;13.566;2023-02-01T22:48:39;17.63;;;0.50;;
5678;SDS011;2862;52.560;13.566;2023-02-01T22:58:43;26.17;;;1.23;;
5678;SDS011;2862;52.560;13.566;2023-02-01T23:08:48;22.37;;;0.90;;
5678;SDS011;2862;52.560;13.566;2023-02-01T23:18:50;20.57;;;1.37;;
5678;SDS011;2862;52.560;13.566;2023-02-01T23:28:55;18.60;;;2.03;;
5678;SDS011;2862;52.560;13.566;2023-02-01T23:38:59;22.83;;;0.63;;
5678;SDS011;2862;52.560;13.566;2023-02-01T23:49:04;24.83;;;1.40;;
5678;SDS011;2862;52.560;13.566;2023-02-01T23:59:11;27.43;;;1.37;;
